DABC/CZL METAR and TAF weather

Enter ICAO airport designator
Station Type Date Time Source
DABC METAR 2021/09/20 05:00 UTC NOAA

DABC 200500Z VRB02KT CAVOK 18/15 Q1019


Station Type Date Time Source
DABC Decoded METAR 2021/09/20 05:00 UTC NOAA

Constantine, Algeria (DABC) 36-17N 006-37E 694M
Sep 20, 2021 - 01:00 AM EDT / 2021.09.20 0500 UTC
Wind: Variable at 2 MPH (2 KT):0
Visibility: greater than 7 mile(s):0
Temperature: 64 F (18 C)
Dew Point: 59 F (15 C)
Relative Humidity: 82%
Pressure (altimeter): 30.09 in. Hg (1019 hPa)
ob: DABC 200500Z VRB02KT CAVOK 18/15 Q1019
cycle: 5

Station Type Date Time Source
DABC TAF 2021/09/20 06:33 UTC NOAA

TAF DABC 200500Z 2006/2106 11008KT 9999 FEW040 PROB30
TEMPO 2006/2012 FEW026TCU
BECMG 2011/2013 05010KT PROB30
TEMPO 2009/2018 5000 RA FEW026CB

Example: see airport list